createdAt,value
2019-05-01T00:00:55.687Z,9.60
2019-05-01T00:03:31.739Z,9.60
2019-05-01T00:06:04.390Z,9.80
2019-05-01T00:08:32.790Z,9.60
2019-05-01T00:11:01.264Z,9.50
2019-05-01T00:13:29.758Z,9.40
2019-05-01T00:15:58.794Z,9.40
2019-05-01T00:18:27.269Z,9.20
2019-05-01T00:20:55.686Z,9.20
2019-05-01T00:23:24.102Z,9.10
2019-05-01T00:25:52.506Z,9.10
2019-05-01T00:28:20.990Z,9.20
2019-05-01T00:30:49.530Z,9.20
2019-05-01T00:33:17.930Z,9.30
2019-05-01T00:35:46.372Z,9.10
2019-05-01T00:38:14.779Z,9.10
2019-05-01T00:40:43.179Z,9.00
2019-05-01T00:43:11.598Z,9.10
2019-05-01T00:45:40.007Z,9.20
2019-05-01T00:48:08.402Z,9.10
2019-05-01T00:50:36.816Z,9.10
2019-05-01T00:53:05.262Z,8.90
2019-05-01T00:55:44.164Z,8.90
2019-05-01T00:58:19.720Z,9.00
2019-05-01T01:00:49.778Z,9.10
2019-05-01T01:03:18.179Z,9.00
2019-05-01T01:05:46.582Z,8.90
2019-05-01T01:08:15.007Z,8.90
2019-05-01T01:10:43.407Z,9.00
2019-05-01T01:13:11.811Z,8.80
2019-05-01T01:15:40.240Z,8.90
2019-05-01T01:18:08.643Z,9.00
2019-05-01T01:20:37.046Z,9.10
2019-05-01T01:23:05.599Z,9.10
2019-05-01T01:25:34.075Z,9.00
2019-05-01T01:28:02.546Z,9.00
2019-05-01T01:30:30.966Z,8.90
2019-05-01T01:32:59.473Z,8.90
2019-05-01T01:35:27.926Z,8.90
2019-05-01T01:37:56.338Z,8.80
2019-05-01T01:40:24.810Z,8.80
2019-05-01T01:42:55.692Z,8.40
2019-05-01T01:45:27.007Z,8.30
2019-05-01T01:48:09.490Z,8.40
2019-05-01T01:50:39.545Z,8.40
2019-05-01T01:53:08.183Z,8.50
2019-05-01T01:55:37.429Z,8.40
2019-05-01T01:58:07.194Z,8.10
2019-05-01T02:00:37.678Z,8.20
2019-05-01T02:03:07.850Z,8.20
2019-05-01T02:05:38.676Z,8.20
2019-05-01T02:08:08.955Z,7.90
2019-05-01T02:10:42.920Z,7.80
2019-05-01T02:13:08.720Z,7.70
2019-05-01T02:15:37.177Z,7.70
2019-05-01T02:18:05.586Z,7.60
2019-05-01T02:20:34.062Z,7.50
2019-05-01T02:23:02.466Z,7.50
2019-05-01T02:25:32.350Z,7.50
2019-05-01T02:28:19.123Z,7.50
2019-05-01T02:30:49.416Z,7.60
2019-05-01T02:33:18.083Z,7.70
2019-05-01T02:35:46.550Z,7.80
2019-05-01T02:38:16.699Z,8.00
2019-05-01T02:40:50.647Z,8.00
2019-05-01T02:43:20.582Z,8.00
2019-05-01T02:45:52.054Z,7.90
2019-05-01T02:48:22.579Z,7.90
2019-05-01T02:50:54.055Z,7.90
2019-05-01T02:53:25.075Z,8.00
2019-05-01T02:56:14.584Z,7.80
2019-05-01T02:58:44.926Z,7.60
2019-05-01T03:01:14.434Z,7.60
2019-05-01T03:03:43.474Z,7.60
2019-05-01T03:08:34.298Z,7.70
2019-05-01T03:13:31.263Z,7.50
2019-05-01T03:16:00.202Z,7.40
2019-05-01T03:18:30.260Z,7.40
2019-05-01T03:21:00.303Z,7.30
2019-05-01T03:23:33.046Z,7.40
2019-05-01T03:26:01.633Z,7.30
2019-05-01T03:28:30.546Z,7.30
2019-05-01T03:30:59.020Z,7.20
2019-05-01T03:33:27.807Z,7.10
2019-05-01T03:35:56.746Z,7.10
2019-05-01T03:38:25.788Z,7.10
2019-05-01T03:40:54.288Z,7.20
2019-05-01T03:43:22.752Z,7.10
2019-05-01T03:45:51.627Z,7.10
2019-05-01T03:48:20.171Z,7.10
2019-05-01T03:50:48.812Z,7.00
2019-05-01T03:53:17.913Z,7.10
2019-05-01T03:55:46.580Z,7.20
2019-05-01T03:58:15.420Z,7.10
2019-05-01T04:00:54.687Z,7.20
2019-05-01T04:03:27.444Z,7.30
2019-05-01T04:05:56.151Z,7.50
2019-05-01T04:08:25.630Z,7.70
2019-05-01T04:10:55.795Z,8.00
2019-05-01T04:13:25.163Z,8.20
2019-05-01T04:15:54.702Z,8.30
2019-05-01T04:18:23.879Z,8.30
2019-05-01T04:20:52.515Z,8.10
2019-05-01T04:23:21.218Z,7.70
2019-05-01T04:25:50.395Z,7.70
2019-05-01T04:28:23.434Z,7.70
2019-05-01T04:30:56.847Z,7.70
2019-05-01T04:33:25.992Z,7.70
2019-05-01T04:35:58.810Z,7.70
2019-05-01T04:38:27.355Z,7.80
2019-05-01T04:40:56.034Z,7.80
2019-05-01T04:43:25.292Z,7.90
2019-05-01T04:45:53.700Z,7.90
2019-05-01T04:48:22.167Z,8.00
2019-05-01T04:50:50.670Z,7.90
2019-05-01T04:53:19.187Z,7.90
2019-05-01T04:55:48.231Z,7.90
2019-05-01T04:58:16.990Z,8.00
2019-05-01T05:00:45.539Z,8.00
2019-05-01T05:03:21.583Z,8.00
2019-05-01T05:05:50.226Z,8.10
2019-05-01T05:08:18.798Z,8.00
2019-05-01T05:10:48.946Z,8.00
2019-05-01T05:13:24.963Z,7.90
2019-05-01T05:15:55.026Z,7.90
2019-05-01T05:18:23.439Z,7.90
2019-05-01T05:20:52.182Z,7.90
2019-05-01T05:23:21.191Z,8.00
2019-05-01T05:25:49.667Z,8.10
2019-05-01T05:28:19.991Z,8.00
2019-05-01T05:30:51.346Z,8.20
2019-05-01T05:33:21.593Z,8.20
2019-05-01T05:35:52.303Z,8.30
2019-05-01T05:38:29.090Z,8.40
2019-05-01T05:41:00.398Z,8.50
2019-05-01T05:43:29.196Z,8.50
2019-05-01T05:45:57.683Z,8.60
2019-05-01T05:48:26.424Z,8.60
2019-05-01T05:51:16.763Z,8.80
2019-05-01T05:53:48.824Z,8.80
2019-05-01T05:56:20.354Z,8.70
2019-05-01T05:58:58.264Z,8.70
2019-05-01T06:01:41.037Z,8.80
2019-05-01T06:04:16.667Z,9.00
2019-05-01T06:06:48.870Z,8.90
2019-05-01T06:09:20.255Z,8.80
2019-05-01T06:11:53.863Z,9.00
2019-05-01T06:14:31.449Z,8.90
2019-05-01T06:17:02.621Z,8.80
2019-05-01T06:19:49.764Z,8.80
2019-05-01T06:22:40.728Z,8.80
2019-05-01T06:25:22.111Z,8.80
2019-05-01T06:27:44.945Z,8.70
2019-05-01T06:30:15.006Z,8.80
2019-05-01T06:32:44.231Z,9.10
2019-05-01T06:35:12.910Z,9.10
2019-05-01T06:38:02.818Z,8.90
2019-05-01T06:40:39.933Z,8.90
2019-05-01T06:43:12.674Z,9.10
2019-05-01T06:45:46.857Z,9.30
2019-05-01T06:48:20.859Z,9.30
2019-05-01T06:50:54.563Z,9.40
2019-05-01T06:53:23.411Z,9.50
2019-05-01T06:55:52.155Z,9.50
2019-05-01T07:00:55.976Z,9.10
2019-05-01T07:03:24.531Z,9.30
2019-05-01T07:05:54.378Z,8.90
2019-05-01T07:08:24.915Z,8.80
2019-05-01T07:10:53.632Z,9.00
2019-05-01T07:13:22.108Z,8.90
2019-05-01T07:15:50.518Z,9.10
2019-05-01T07:18:23.643Z,9.40
2019-05-01T07:20:51.746Z,9.60
2019-05-01T07:23:21.475Z,9.60
2019-05-01T07:25:50.362Z,9.20
2019-05-01T07:28:18.899Z,9.50
2019-05-01T07:30:49.962Z,9.30
2019-05-01T07:33:19.162Z,9.40
2019-05-01T07:35:48.414Z,9.80
2019-05-01T07:38:17.463Z,9.80
2019-05-01T07:40:46.206Z,9.80
2019-05-01T07:43:18.956Z,10.00
2019-05-01T07:45:48.836Z,9.90
2019-05-01T07:48:20.310Z,9.80
2019-05-01T07:50:48.791Z,9.70
2019-05-01T07:53:17.467Z,9.60
2019-05-01T07:55:48.553Z,9.40
2019-05-01T07:58:18.232Z,9.70
2019-05-01T08:00:57.638Z,9.70
2019-05-01T08:03:26.314Z,9.60
2019-05-01T08:05:54.806Z,9.60
2019-05-01T08:08:23.218Z,9.60
2019-05-01T08:10:51.694Z,9.70
2019-05-01T08:13:20.107Z,10.00
2019-05-01T08:15:48.522Z,9.80
2019-05-01T08:18:24.131Z,9.90
2019-05-01T08:21:05.386Z,9.80
2019-05-01T08:23:34.371Z,9.80
2019-05-01T08:26:03.897Z,10.10
2019-05-01T08:28:34.555Z,10.30
2019-05-01T08:31:23.036Z,10.30
2019-05-01T08:33:55.723Z,10.10
2019-05-01T08:36:24.129Z,10.20
2019-05-01T08:38:52.546Z,10.10
2019-05-01T08:41:21.138Z,10.10
2019-05-01T08:43:54.119Z,10.00
2019-05-01T08:46:38.270Z,9.90
2019-05-01T08:49:11.310Z,10.40
2019-05-01T08:51:38.699Z,10.70
2019-05-01T08:54:07.479Z,10.70
2019-05-01T08:56:35.882Z,10.90
2019-05-01T08:59:04.443Z,10.90
2019-05-01T09:01:32.854Z,11.00
2019-05-01T09:04:12.326Z,11.10
2019-05-01T09:06:34.883Z,11.00
2019-05-01T09:09:02.961Z,10.80
2019-05-01T09:11:36.053Z,11.00
2019-05-01T09:14:01.822Z,11.10
2019-05-01T09:16:30.331Z,11.00
2019-05-01T09:18:58.823Z,11.00
2019-05-01T09:21:27.406Z,11.00
2019-05-01T09:23:55.835Z,11.10
2019-05-01T09:26:37.771Z,11.40
2019-05-01T09:29:15.592Z,11.20
2019-05-01T09:31:41.115Z,11.10
2019-05-01T09:34:09.646Z,11.40
2019-05-01T09:36:38.107Z,11.60
2019-05-01T09:39:07.046Z,11.70
2019-05-01T09:41:38.360Z,11.50
2019-05-01T09:44:10.519Z,11.20
2019-05-01T09:46:35.979Z,11.10
2019-05-01T09:49:05.226Z,11.00
2019-05-01T09:51:35.362Z,11.20
2019-05-01T09:54:11.024Z,10.90
2019-05-01T09:56:39.535Z,11.00
2019-05-01T09:59:08.204Z,11.10
2019-05-01T10:01:38.158Z,11.40
2019-05-01T10:04:06.566Z,11.50
2019-05-01T10:06:35.019Z,11.20
2019-05-01T10:09:05.314Z,11.10
2019-05-01T10:11:35.894Z,11.40
2019-05-01T10:14:04.887Z,11.30
2019-05-01T10:16:33.299Z,11.30
2019-05-01T10:19:01.723Z,11.70
2019-05-01T10:21:30.182Z,11.80
2019-05-01T10:23:58.626Z,11.70
2019-05-01T10:26:28.676Z,11.80
2019-05-01T10:29:04.527Z,12.10
2019-05-01T10:31:50.569Z,12.10
2019-05-01T10:34:38.628Z,12.40
2019-05-01T10:37:07.066Z,12.70
2019-05-01T10:39:35.478Z,12.60
2019-05-01T10:42:04.066Z,12.60
2019-05-01T10:44:32.470Z,12.30
2019-05-01T10:47:02.076Z,12.30
2019-05-01T10:49:31.120Z,12.30
2019-05-01T10:51:59.526Z,12.60
2019-05-01T10:54:28.022Z,12.80
2019-05-01T10:56:58.815Z,12.70
2019-05-01T10:59:26.589Z,13.10
2019-05-01T11:01:56.636Z,13.00
2019-05-01T11:04:25.317Z,13.60
2019-05-01T11:06:53.789Z,13.40
2019-05-01T11:09:22.200Z,13.60
2019-05-01T11:11:50.705Z,13.80
2019-05-01T11:14:19.114Z,14.10
2019-05-01T11:16:47.569Z,14.60
2019-05-01T11:19:15.976Z,15.80
2019-05-01T11:21:44.402Z,16.00
2019-05-01T11:24:12.811Z,16.60
2019-05-01T11:26:41.527Z,16.70
2019-05-01T11:29:09.933Z,14.70
2019-05-01T11:31:58.107Z,14.80
2019-05-01T11:34:34.331Z,15.00
2019-05-01T11:37:10.751Z,15.40
2019-05-01T11:39:43.514Z,16.10
2019-05-01T11:42:13.567Z,16.30
2019-05-01T11:44:42.067Z,16.40
2019-05-01T11:47:10.543Z,16.20
2019-05-01T11:49:38.953Z,16.40
2019-05-01T11:52:07.562Z,16.30
2019-05-01T11:54:36.045Z,16.60
2019-05-01T11:57:04.791Z,16.70
2019-05-01T11:59:33.253Z,17.10
2019-05-01T12:02:02.573Z,18.00
2019-05-01T12:04:31.074Z,18.20
2019-05-01T12:06:59.570Z,19.70
2019-05-01T12:09:28.014Z,19.60
2019-05-01T12:11:58.058Z,19.30
2019-05-01T12:14:26.465Z,18.90
2019-05-01T12:16:56.527Z,18.90
2019-05-01T12:19:26.572Z,19.20
2019-05-01T12:21:55.047Z,19.80
2019-05-01T12:24:23.473Z,19.40
2019-05-01T12:26:51.879Z,19.00
2019-05-01T12:29:20.294Z,19.40
2019-05-01T12:31:48.737Z,20.20
2019-05-01T12:34:17.137Z,20.50
2019-05-01T12:36:46.211Z,20.70
2019-05-01T12:39:17.997Z,20.40
2019-05-01T12:41:56.830Z,20.70
2019-05-01T12:44:25.242Z,19.30
2019-05-01T12:47:06.914Z,19.80
2019-05-01T12:49:35.340Z,20.40
2019-05-01T12:52:10.693Z,20.80
2019-05-01T12:54:40.271Z,20.20
2019-05-01T12:59:36.758Z,19.60
2019-05-01T13:02:05.190Z,20.00
2019-05-01T13:04:33.602Z,19.60
2019-05-01T13:07:02.079Z,19.40
2019-05-01T13:09:30.492Z,20.00
2019-05-01T13:11:58.895Z,20.20
2019-05-01T13:16:55.455Z,20.50
2019-05-01T13:19:23.884Z,19.70
2019-05-01T13:21:52.306Z,19.30
2019-05-01T13:24:20.722Z,19.70
2019-05-01T13:26:59.562Z,20.30
2019-05-01T13:29:29.611Z,20.00
2019-05-01T13:32:06.041Z,19.30
2019-05-01T13:34:34.446Z,19.60
2019-05-01T13:39:32.157Z,19.30
2019-05-01T13:42:00.666Z,19.20
2019-05-01T13:44:29.357Z,19.10
2019-05-01T13:46:57.777Z,19.20
2019-05-01T13:49:26.222Z,18.90
2019-05-01T13:51:54.631Z,19.00
2019-05-01T13:54:23.102Z,19.00
2019-05-01T13:56:51.511Z,19.10
2019-05-01T13:59:19.918Z,19.50
2019-05-01T14:01:48.342Z,19.20
2019-05-01T14:04:17.414Z,19.00
2019-05-01T14:06:45.830Z,19.50
2019-05-01T14:09:16.226Z,19.10
2019-05-01T14:11:44.699Z,19.70
2019-05-01T14:16:41.183Z,20.10
2019-05-01T14:19:09.605Z,20.00
2019-05-01T14:21:42.407Z,19.70
2019-05-01T14:24:28.743Z,19.90
2019-05-01T14:26:57.150Z,20.20
2019-05-01T14:29:25.554Z,19.60
2019-05-01T14:31:53.995Z,19.40
2019-05-01T14:34:22.400Z,19.40
2019-05-01T14:36:50.810Z,19.90
2019-05-01T14:39:19.299Z,19.70
2019-05-01T14:41:47.702Z,19.50
2019-05-01T14:44:16.180Z,19.70
2019-05-01T14:46:44.839Z,19.30
2019-05-01T14:49:13.307Z,19.40
2019-05-01T14:51:41.724Z,19.30
2019-05-01T14:54:10.131Z,19.10
2019-05-01T14:56:38.543Z,19.10
2019-05-01T14:59:07.180Z,19.20
2019-05-01T15:01:36.279Z,19.60
2019-05-01T15:04:05.028Z,19.30
2019-05-01T15:06:33.426Z,19.40
2019-05-01T15:09:01.874Z,18.80
2019-05-01T15:11:30.284Z,18.70
2019-05-01T15:14:06.174Z,19.00
2019-05-01T15:16:47.795Z,19.10
2019-05-01T15:19:18.162Z,19.00
2019-05-01T15:21:46.668Z,19.30
2019-05-01T15:24:15.101Z,18.90
2019-05-01T15:26:43.536Z,18.80
2019-05-01T15:29:11.943Z,19.00
2019-05-01T15:31:40.421Z,19.20
2019-05-01T15:34:08.829Z,19.20
2019-05-01T15:36:37.234Z,18.90
2019-05-01T15:39:09.822Z,18.70
2019-05-01T15:41:56.322Z,18.70
2019-05-01T15:44:26.381Z,18.50
2019-05-01T15:46:54.786Z,18.50
2019-05-01T15:49:23.197Z,18.40
2019-05-01T15:51:51.658Z,18.60
2019-05-01T15:54:20.084Z,18.50
2019-05-01T15:56:48.505Z,18.50
2019-05-01T15:59:16.914Z,18.40
2019-05-01T16:01:45.322Z,18.30
2019-05-01T16:04:13.738Z,18.10
2019-05-01T16:06:42.138Z,18.30
2019-05-01T16:09:10.911Z,18.40
2019-05-01T16:11:57.318Z,18.40
2019-05-01T16:14:25.726Z,18.40
2019-05-01T16:16:54.204Z,18.20
2019-05-01T16:19:22.607Z,18.30
2019-05-01T16:21:51.019Z,18.30
2019-05-01T16:24:19.418Z,18.00
2019-05-01T16:26:47.844Z,17.80
2019-05-01T16:29:16.324Z,17.80
2019-05-01T16:31:44.739Z,18.00
2019-05-01T16:34:13.157Z,17.80
2019-05-01T16:36:41.564Z,17.80
2019-05-01T16:39:14.534Z,17.90
2019-05-01T16:41:44.593Z,17.50
2019-05-01T16:44:13.067Z,17.50
2019-05-01T16:46:41.499Z,17.60
2019-05-01T16:49:10.226Z,17.60
2019-05-01T16:51:38.636Z,17.40
2019-05-01T16:56:35.895Z,17.20
2019-05-01T16:59:04.303Z,17.00
2019-05-01T17:01:37.658Z,17.00
2019-05-01T17:04:07.793Z,16.90
2019-05-01T17:06:41.119Z,16.80
2019-05-01T17:09:15.304Z,16.70
2019-05-01T17:11:43.779Z,16.80
2019-05-01T17:14:13.811Z,16.80
2019-05-01T17:16:42.307Z,16.70
2019-05-01T17:19:10.984Z,16.70
2019-05-01T17:21:39.393Z,16.50
2019-05-01T17:24:07.921Z,16.50
2019-05-01T17:26:36.370Z,16.50
2019-05-01T17:29:04.846Z,16.50
2019-05-01T17:31:33.529Z,16.40
2019-05-01T17:34:02.520Z,16.20
2019-05-01T17:36:30.930Z,16.20
2019-05-01T17:38:59.344Z,16.00
2019-05-01T17:41:28.692Z,16.00
2019-05-01T17:43:57.203Z,16.00
2019-05-01T17:46:25.620Z,16.00
2019-05-01T17:48:54.026Z,15.90
2019-05-01T17:51:22.468Z,15.80
2019-05-01T17:53:50.970Z,15.80
2019-05-01T17:56:27.507Z,15.70
2019-05-01T17:58:49.519Z,15.70
2019-05-01T18:01:19.570Z,15.70
2019-05-01T18:03:52.855Z,15.50
2019-05-01T18:06:22.898Z,15.40
2019-05-01T18:09:02.378Z,15.20
2019-05-01T18:11:21.579Z,15.20
2019-05-01T18:13:50.010Z,15.10
2019-05-01T18:16:18.830Z,14.80
2019-05-01T18:18:47.414Z,14.80
2019-05-01T18:21:16.296Z,14.80
2019-05-01T18:24:02.640Z,14.70
2019-05-01T18:26:32.695Z,14.60
2019-05-01T18:29:06.909Z,14.60
2019-05-01T18:31:35.394Z,14.50
2019-05-01T18:34:04.595Z,14.30
2019-05-01T18:36:37.411Z,14.30
2019-05-01T18:39:16.303Z,14.20
2019-05-01T18:41:46.947Z,14.10
2019-05-01T18:44:15.492Z,14.20
2019-05-01T18:49:11.970Z,14.10
2019-05-01T18:51:40.921Z,14.10
2019-05-01T18:54:10.277Z,13.90
2019-05-01T18:56:39.580Z,13.90
2019-05-01T18:59:08.350Z,13.70
2019-05-01T19:01:37.042Z,13.60
2019-05-01T19:04:05.455Z,13.60
2019-05-01T19:06:40.974Z,13.50
2019-05-01T19:09:14.785Z,13.50
2019-05-01T19:11:37.188Z,13.50
2019-05-01T19:14:05.953Z,13.30
2019-05-01T19:19:04.082Z,13.20
2019-05-01T19:21:33.802Z,13.10
2019-05-01T19:24:02.496Z,13.10
2019-05-01T19:26:32.335Z,13.00
2019-05-01T19:29:00.818Z,13.00
2019-05-01T19:31:29.248Z,12.80
2019-05-01T19:33:57.831Z,12.70
2019-05-01T19:36:26.356Z,12.70
2019-05-01T19:38:54.806Z,12.60
2019-05-01T19:41:23.216Z,12.60
2019-05-01T19:43:51.801Z,12.60
2019-05-01T19:46:20.281Z,12.60
2019-05-01T19:48:50.695Z,12.60
2019-05-01T19:51:23.366Z,12.60
2019-05-01T19:53:51.827Z,12.50
2019-05-01T19:56:21.522Z,12.50
2019-05-01T19:58:50.110Z,12.40
2019-05-01T20:01:18.534Z,12.40
2019-05-01T20:03:47.033Z,12.50
2019-05-01T20:06:15.554Z,12.50
2019-05-01T20:08:44.014Z,12.50
2019-05-01T20:11:12.661Z,12.50
2019-05-01T20:13:42.309Z,12.30
2019-05-01T20:16:11.205Z,12.30
2019-05-01T20:18:39.617Z,12.30
2019-05-01T20:21:08.453Z,12.20
2019-05-01T20:23:36.862Z,12.20
2019-05-01T20:26:05.338Z,12.20
2019-05-01T20:28:33.747Z,12.20
2019-05-01T20:31:02.169Z,12.10
2019-05-01T20:33:33.403Z,12.10
2019-05-01T20:36:05.158Z,12.10
2019-05-01T20:38:30.938Z,12.10
2019-05-01T20:40:59.344Z,12.20
2019-05-01T20:43:27.748Z,12.10
2019-05-01T20:45:56.206Z,12.10
2019-05-01T20:48:25.168Z,12.00
2019-05-01T20:50:53.737Z,12.00
2019-05-01T20:53:22.153Z,11.90
2019-05-01T20:55:52.203Z,11.90
2019-05-01T20:58:21.481Z,11.90
2019-05-01T21:00:53.231Z,11.80
2019-05-01T21:03:22.047Z,11.70
2019-05-01T21:06:02.839Z,11.70
2019-05-01T21:08:34.363Z,11.70
2019-05-01T21:11:06.050Z,11.70
2019-05-01T21:13:34.557Z,11.70
2019-05-01T21:16:03.864Z,11.60
2019-05-01T21:18:32.627Z,11.50
2019-05-01T21:21:03.331Z,11.50
2019-05-01T21:23:33.335Z,11.60
2019-05-01T21:26:01.382Z,11.60
2019-05-01T21:28:29.786Z,11.70
2019-05-01T21:30:58.194Z,11.70
2019-05-01T21:33:26.609Z,11.70
2019-05-01T21:35:55.010Z,11.70
2019-05-01T21:38:23.422Z,11.60
2019-05-01T21:40:53.739Z,11.30
2019-05-01T21:43:23.579Z,11.20
2019-05-01T21:45:53.457Z,11.00
2019-05-01T21:48:23.170Z,10.90
2019-05-01T21:50:53.618Z,10.90
2019-05-01T21:53:23.790Z,10.90
2019-05-01T21:55:52.011Z,10.90
2019-05-01T21:58:21.155Z,11.00
2019-05-01T22:00:50.998Z,11.00
2019-05-01T22:03:21.450Z,11.00
2019-05-01T22:05:49.557Z,11.00
2019-05-01T22:08:18.098Z,11.10
2019-05-01T22:10:52.205Z,11.10
2019-05-01T22:13:20.394Z,11.10
2019-05-01T22:15:51.980Z,11.00
2019-05-01T22:18:27.774Z,11.10
2019-05-01T22:21:06.766Z,11.10
2019-05-01T22:23:52.750Z,11.00
2019-05-01T22:26:21.326Z,11.00
2019-05-01T22:28:54.893Z,11.00
2019-05-01T22:31:41.852Z,10.80
2019-05-01T22:34:27.997Z,10.60
2019-05-01T22:36:56.475Z,10.70
2019-05-01T22:39:28.773Z,10.70
2019-05-01T22:41:56.654Z,10.70
2019-05-01T22:44:25.086Z,10.60
2019-05-01T22:46:53.492Z,10.60
2019-05-01T22:49:21.903Z,10.50
2019-05-01T22:51:50.311Z,10.60
2019-05-01T22:54:18.714Z,10.50
2019-05-01T22:56:47.196Z,10.30
2019-05-01T22:59:15.600Z,10.30
2019-05-01T23:01:49.244Z,10.30
2019-05-01T23:04:17.105Z,10.40
2019-05-01T23:06:45.914Z,10.40
2019-05-01T23:09:15.206Z,10.20
2019-05-01T23:11:45.094Z,10.20
2019-05-01T23:14:13.568Z,10.10
2019-05-01T23:16:43.850Z,10.10
2019-05-01T23:19:12.254Z,10.20
2019-05-01T23:21:40.659Z,10.20
2019-05-01T23:24:09.214Z,10.00
2019-05-01T23:26:37.690Z,10.00
2019-05-01T23:29:06.094Z,9.90
2019-05-01T23:31:34.578Z,9.90
2019-05-01T23:34:03.001Z,9.90
2019-05-01T23:36:31.381Z,9.80
2019-05-01T23:38:59.810Z,9.80
2019-05-01T23:41:44.633Z,9.80
2019-05-01T23:44:03.281Z,9.70
2019-05-01T23:46:28.482Z,9.60
2019-05-01T23:48:56.884Z,9.60
2019-05-01T23:51:28.700Z,9.60
2019-05-01T23:53:55.423Z,9.60
2019-05-01T23:56:23.827Z,9.40
2019-05-01T23:58:52.228Z,9.40
